Main page
Satellite images 15-day forecastsClimateMarine weather Cyclones Lightning AirportsFAQ Newsletter About
Weather : Europe Africa North America South America Asia Australia-Oceania Others
Languages Contact

Brussels, Belgium

National

latitude: 50-54N, longitude: 004-32E, elevation: 55 m


METAR: EBBR 311620Z 14003KT CAVOK 16/13 Q1021 NOSIG
TAF: EBBR 311133Z 3112/0118 18008KT CAVOK

Time: 17:58 (16:58 UTC)

Current weather observation

The report was made 38 minutes ago, at 16:20 UTC
Wind 3 kt from the Southeast
Temperature 16°C
Humidity 82%
Pressure 1021 hPa
Visibility 10 km or more
no clouds below 1500 m and no cumulonimbus

Change units

Forecast

The report was made 5 hours and 25 minutes ago, at 11:33 UTC
Forecast valid from 31 at 12 UTC to 01 at 18 UTC
Wind 8 kt from the South
Visibility 10 km or more
no clouds below 1500 m and no cumulonimbus
The information on this site is subject to a disclaimer
Weather : Europe Africa North America South America Asia Australia-Oceania Others
Satellite images 15-day forecastsClimateMarine weather Cyclones Lightning AirportsFAQ Languages Contact Newsletter About